createdAt,value
2022-08-19T00:00:04.570Z,13.75
2022-08-19T00:02:33.701Z,17.25
2022-08-19T00:05:01.838Z,14.00
2022-08-19T00:07:31.472Z,17.25
2022-08-19T00:10:01.076Z,17.25
2022-08-19T00:12:29.255Z,18.50
2022-08-19T00:14:57.342Z,18.00
2022-08-19T00:17:25.588Z,17.00
2022-08-19T00:19:53.717Z,18.00
2022-08-19T00:22:21.756Z,16.00
2022-08-19T00:24:51.011Z,13.00
2022-08-19T00:27:25.873Z,16.50
2022-08-19T00:29:55.129Z,17.75
2022-08-19T00:32:23.858Z,17.00
2022-08-19T00:34:54.502Z,18.50
2022-08-19T00:37:24.018Z,16.50
2022-08-19T00:39:52.445Z,20.25
2022-08-19T00:42:22.808Z,11.00
2022-08-19T00:44:51.623Z,18.00
2022-08-19T00:47:20.921Z,13.00
2022-08-19T00:49:52.425Z,15.00
2022-08-19T00:52:23.115Z,14.50
2022-08-19T00:54:52.906Z,18.75
2022-08-19T00:57:24.833Z,17.50
2022-08-19T01:00:01.128Z,17.25
2022-08-19T01:02:32.617Z,20.25
2022-08-19T01:05:01.474Z,9.00
2022-08-19T01:07:35.862Z,19.75
2022-08-19T01:10:07.737Z,18.50
2022-08-19T01:12:37.377Z,18.00
2022-08-19T01:15:06.016Z,18.75
2022-08-19T01:17:34.264Z,20.25
2022-08-19T01:20:02.375Z,19.25
2022-08-19T01:22:34.176Z,20.75
2022-08-19T01:25:02.418Z,19.00
2022-08-19T01:27:43.748Z,20.50
2022-08-19T01:30:13.565Z,19.25
2022-08-19T01:32:41.904Z,13.50
2022-08-19T01:35:10.240Z,17.00
2022-08-19T01:37:46.643Z,16.25
2022-08-19T01:40:15.068Z,19.00
2022-08-19T01:42:43.351Z,16.00
2022-08-19T01:45:11.918Z,16.25
2022-08-19T01:47:40.035Z,18.50
2022-08-19T01:50:10.257Z,16.50
2022-08-19T01:52:38.868Z,17.50
2022-08-19T01:55:10.196Z,14.00
2022-08-19T01:57:40.011Z,15.50
2022-08-19T02:00:09.672Z,16.25
2022-08-19T02:02:40.549Z,16.00
2022-08-19T02:05:13.157Z,13.50
2022-08-19T02:07:41.789Z,14.00
2022-08-19T02:10:13.446Z,16.75
2022-08-19T02:12:44.751Z,16.00
2022-08-19T02:15:12.917Z,13.50
2022-08-19T02:17:41.317Z,11.00
2022-08-19T02:20:10.038Z,14.50
2022-08-19T02:22:38.131Z,14.00
2022-08-19T02:25:07.133Z,9.00
2022-08-19T02:27:36.739Z,14.00
2022-08-19T02:30:05.641Z,14.00
2022-08-19T02:32:34.403Z,11.25
2022-08-19T02:35:12.952Z,14.00
2022-08-19T02:37:58.596Z,11.50
2022-08-19T02:40:26.716Z,9.25
2022-08-19T02:42:56.349Z,15.00
2022-08-19T02:45:24.608Z,13.25
2022-08-19T02:47:52.987Z,10.25
2022-08-19T02:50:21.093Z,13.50
2022-08-19T02:52:49.254Z,14.00
2022-08-19T02:55:17.496Z,15.75
2022-08-19T02:57:45.579Z,11.25
2022-08-19T03:00:16.023Z,13.75
2022-08-19T03:02:44.110Z,14.00
2022-08-19T03:05:12.653Z,5.25
2022-08-19T03:07:40.955Z,13.50
2022-08-19T03:10:09.413Z,16.75
2022-08-19T03:12:38.678Z,15.00
2022-08-19T03:15:08.618Z,15.25
2022-08-19T03:17:38.182Z,16.00
2022-08-19T03:20:07.115Z,11.25
2022-08-19T03:22:44.122Z,11.50
2022-08-19T03:25:13.086Z,14.00
2022-08-19T03:27:41.165Z,17.75
2022-08-19T03:30:11.698Z,7.75
2022-08-19T03:32:45.379Z,13.00
2022-08-19T03:35:13.740Z,13.50
2022-08-19T03:37:42.172Z,11.00
2022-08-19T03:40:10.784Z,14.75
2022-08-19T03:42:49.401Z,14.50
2022-08-19T03:45:17.831Z,13.00
2022-08-19T03:47:47.634Z,13.00
2022-08-19T03:50:15.700Z,12.25
2022-08-19T03:52:45.357Z,5.25
2022-08-19T03:55:15.120Z,13.00
2022-08-19T03:57:43.201Z,10.25
2022-08-19T04:00:12.878Z,1.00
2022-08-19T04:02:41.495Z,8.75
2022-08-19T04:05:11.384Z,11.00
2022-08-19T04:07:39.505Z,10.00
2022-08-19T04:10:07.938Z,10.50
2022-08-19T04:12:39.838Z,6.00
2022-08-19T04:15:09.511Z,8.00
2022-08-19T04:17:37.636Z,0.00
2022-08-19T04:20:06.983Z,7.75
2022-08-19T04:22:36.762Z,7.50
2022-08-19T04:25:05.272Z,10.00
2022-08-19T04:27:34.457Z,9.00
2022-08-19T04:30:02.559Z,10.50
2022-08-19T04:32:33.094Z,11.25
2022-08-19T04:35:17.630Z,7.75
2022-08-19T04:37:48.890Z,8.50
2022-08-19T04:40:34.230Z,6.50
2022-08-19T04:43:03.228Z,10.75
2022-08-19T04:45:39.500Z,6.00
2022-08-19T04:48:26.763Z,10.00
2022-08-19T04:50:58.709Z,9.00
2022-08-19T04:53:29.837Z,8.50
2022-08-19T04:56:08.020Z,4.00
2022-08-19T04:58:36.580Z,11.25
2022-08-19T05:01:04.789Z,9.00
2022-08-19T05:03:34.823Z,6.50
2022-08-19T05:06:08.474Z,5.00
2022-08-19T05:08:38.485Z,10.50
2022-08-19T05:11:10.228Z,9.50
2022-08-19T05:13:43.433Z,10.00
2022-08-19T05:16:12.131Z,10.75
2022-08-19T05:18:58.280Z,9.50
2022-08-19T05:21:44.222Z,12.00
2022-08-19T05:24:15.636Z,9.50
2022-08-19T05:26:46.656Z,9.75
2022-08-19T05:29:15.393Z,10.00
2022-08-19T05:31:44.365Z,9.50
2022-08-19T05:34:18.531Z,10.75
2022-08-19T05:36:48.754Z,11.25
2022-08-19T05:39:19.327Z,12.25
2022-08-19T05:41:48.434Z,9.50
2022-08-19T05:44:17.898Z,9.25
2022-08-19T05:46:48.071Z,9.75
2022-08-19T05:49:17.683Z,10.25
2022-08-19T05:51:46.733Z,11.00
2022-08-19T05:54:14.975Z,8.50
2022-08-19T05:56:45.314Z,12.25
2022-08-19T05:59:13.938Z,9.00
2022-08-19T06:01:43.211Z,12.00
2022-08-19T06:04:11.479Z,10.75
2022-08-19T06:06:39.535Z,9.00
2022-08-19T06:09:09.406Z,10.50
2022-08-19T06:11:39.995Z,7.25
2022-08-19T06:14:16.558Z,7.00
2022-08-19T06:16:45.535Z,10.50
2022-08-19T06:19:15.626Z,10.50
2022-08-19T06:21:45.077Z,9.75
2022-08-19T06:24:14.285Z,11.00
2022-08-19T06:26:43.443Z,9.75
2022-08-19T06:29:24.091Z,8.75
2022-08-19T06:31:53.166Z,10.50
2022-08-19T06:34:21.675Z,8.25
2022-08-19T06:36:50.692Z,9.25
2022-08-19T06:39:20.018Z,10.00
2022-08-19T06:41:51.832Z,10.50
2022-08-19T06:44:25.842Z,12.00
2022-08-19T06:46:55.148Z,9.50
2022-08-19T06:49:23.842Z,12.25
2022-08-19T06:51:52.749Z,11.00
2022-08-19T06:54:21.440Z,10.00
2022-08-19T06:56:49.510Z,10.00
2022-08-19T06:59:19.534Z,8.00
2022-08-19T07:01:50.220Z,11.50
2022-08-19T07:04:19.182Z,13.25
2022-08-19T07:06:55.337Z,9.00
2022-08-19T07:09:24.561Z,14.75
2022-08-19T07:11:54.348Z,9.50
2022-08-19T07:14:26.500Z,12.25
2022-08-19T07:16:57.353Z,7.00
2022-08-19T07:19:28.131Z,13.00
2022-08-19T07:21:56.793Z,9.00
2022-08-19T07:24:26.999Z,12.00
2022-08-19T07:27:03.054Z,11.75
2022-08-19T07:29:34.090Z,9.25
2022-08-19T07:32:06.365Z,11.00
2022-08-19T07:34:40.219Z,9.75
2022-08-19T07:37:09.461Z,13.00
2022-08-19T07:39:38.509Z,10.75
2022-08-19T07:42:08.058Z,10.75
2022-08-19T07:44:36.270Z,7.00
2022-08-19T07:47:06.000Z,6.25
2022-08-19T07:49:34.208Z,7.50
2022-08-19T07:52:06.843Z,8.25
2022-08-19T07:54:36.711Z,8.75
2022-08-19T07:57:05.501Z,10.25
2022-08-19T07:59:33.643Z,10.50
2022-08-19T08:02:03.368Z,8.00
2022-08-19T08:04:50.697Z,9.00
2022-08-19T08:07:36.539Z,6.00
2022-08-19T08:10:07.281Z,5.75
2022-08-19T08:12:43.394Z,8.75
2022-08-19T08:15:31.528Z,9.50
2022-08-19T08:17:59.874Z,7.75
2022-08-19T08:20:29.376Z,8.25
2022-08-19T08:23:15.222Z,7.75
2022-08-19T08:25:43.337Z,8.00
2022-08-19T08:28:17.641Z,6.50
2022-08-19T08:30:46.914Z,6.25
2022-08-19T08:35:46.637Z,6.25
2022-08-19T08:38:15.401Z,6.50
2022-08-19T08:40:46.055Z,9.00
2022-08-19T08:43:22.419Z,9.00
2022-08-19T08:45:53.912Z,9.50
2022-08-19T08:48:25.065Z,9.00
2022-08-19T08:50:57.083Z,6.00
2022-08-19T08:53:26.332Z,4.50
2022-08-19T08:55:58.477Z,3.75
2022-08-19T08:58:31.745Z,4.25
2022-08-19T09:00:59.874Z,3.25
2022-08-19T09:03:31.488Z,4.00
2022-08-19T09:06:03.731Z,5.75
2022-08-19T09:08:44.063Z,7.00
2022-08-19T09:11:15.924Z,2.00
2022-08-19T09:14:09.342Z,6.00
2022-08-19T09:16:47.369Z,6.00
2022-08-19T09:19:16.913Z,5.25
2022-08-19T09:21:52.572Z,6.75
2022-08-19T09:24:20.707Z,5.00
2022-08-19T09:26:52.873Z,5.00
2022-08-19T09:29:22.439Z,4.00
2022-08-19T09:31:51.730Z,4.25
2022-08-19T09:34:22.169Z,3.25
2022-08-19T09:36:54.770Z,5.00
2022-08-19T09:39:23.810Z,3.50
2022-08-19T09:41:52.034Z,4.00
2022-08-19T09:44:21.942Z,4.75
2022-08-19T09:46:50.452Z,3.00
2022-08-19T09:49:19.270Z,4.50
2022-08-19T09:51:51.562Z,4.50
2022-08-19T09:54:23.795Z,6.00
2022-08-19T09:56:53.586Z,4.25
2022-08-19T09:59:21.898Z,1.25
2022-08-19T10:01:49.999Z,4.50
2022-08-19T10:04:20.183Z,5.00
2022-08-19T10:06:53.443Z,5.00
2022-08-19T10:09:33.825Z,4.25
2022-08-19T10:12:02.449Z,3.75
2022-08-19T10:14:31.384Z,4.00
2022-08-19T10:17:01.384Z,3.50
2022-08-19T10:19:52.693Z,5.50
2022-08-19T10:22:24.017Z,5.00
2022-08-19T10:24:55.722Z,4.00
2022-08-19T10:27:23.903Z,2.00
2022-08-19T10:29:54.533Z,4.00
2022-08-19T10:32:34.281Z,3.75
2022-08-19T10:35:06.043Z,2.75
2022-08-19T10:37:34.481Z,4.00
2022-08-19T10:40:05.401Z,4.00
2022-08-19T10:42:33.661Z,4.25
2022-08-19T10:45:01.819Z,3.00
2022-08-19T10:47:33.058Z,4.00
2022-08-19T10:50:18.766Z,5.50
2022-08-19T10:52:49.227Z,2.50
2022-08-19T10:55:38.250Z,4.00
2022-08-19T10:58:07.139Z,1.00
2022-08-19T11:00:39.045Z,2.00
2022-08-19T11:03:07.319Z,3.00
2022-08-19T11:05:39.975Z,3.20
2022-08-19T11:08:22.170Z,5.00
2022-08-19T11:11:00.312Z,3.50
2022-08-19T11:13:28.652Z,4.75
2022-08-19T11:16:07.446Z,5.00
2022-08-19T11:18:38.438Z,3.50
2022-08-19T11:21:10.638Z,4.00
2022-08-19T11:23:38.783Z,4.00
2022-08-19T11:26:08.947Z,2.00
2022-08-19T11:28:37.327Z,5.25
2022-08-19T11:31:05.635Z,5.50
2022-08-19T11:33:33.864Z,4.00
2022-08-19T11:36:02.561Z,5.50
2022-08-19T11:38:31.723Z,6.00
2022-08-19T11:41:00.583Z,3.75
2022-08-19T11:43:32.398Z,4.00
2022-08-19T11:46:06.523Z,2.00
2022-08-19T11:48:35.016Z,5.50
2022-08-19T11:51:07.876Z,5.00
2022-08-19T11:53:36.658Z,4.00
2022-08-19T11:56:05.403Z,0.50
2022-08-19T11:58:35.410Z,4.25
2022-08-19T12:01:03.758Z,6.00
2022-08-19T12:03:32.064Z,5.50
2022-08-19T12:06:00.354Z,4.00
2022-08-19T12:08:29.110Z,5.20
2022-08-19T12:10:57.767Z,4.50
2022-08-19T12:13:25.950Z,6.00
2022-08-19T12:15:55.573Z,7.00
2022-08-19T12:18:23.673Z,5.40
2022-08-19T12:20:52.989Z,5.00
2022-08-19T12:23:21.261Z,3.50
2022-08-19T12:25:52.879Z,4.00
2022-08-19T12:28:23.247Z,4.00
2022-08-19T12:30:52.360Z,5.50
2022-08-19T12:33:25.284Z,4.20
2022-08-19T12:35:53.383Z,2.50
2022-08-19T12:38:22.186Z,6.40
2022-08-19T12:40:56.015Z,4.75
2022-08-19T12:43:26.638Z,3.20
2022-08-19T12:45:54.766Z,6.25
2022-08-19T12:48:33.440Z,5.50
2022-08-19T12:51:03.081Z,3.60
2022-08-19T12:53:31.332Z,3.50
2022-08-19T12:56:00.853Z,4.50
2022-08-19T12:58:29.933Z,6.00
2022-08-19T13:00:58.191Z,4.60
2022-08-19T13:03:30.437Z,4.00
2022-08-19T13:05:58.883Z,5.75
2022-08-19T13:08:26.994Z,8.00
2022-08-19T13:10:56.659Z,4.50
2022-08-19T13:13:27.160Z,8.50
2022-08-19T13:16:03.169Z,5.25
2022-08-19T13:18:33.104Z,5.50
2022-08-19T13:21:04.497Z,7.00
2022-08-19T13:23:32.647Z,6.50
2022-08-19T13:26:01.725Z,7.00
2022-08-19T13:28:54.698Z,8.00
2022-08-19T13:31:43.654Z,7.75
2022-08-19T13:34:13.678Z,6.75
2022-08-19T13:36:41.791Z,7.00
2022-08-19T13:39:10.032Z,6.00
2022-08-19T13:41:38.602Z,7.25
2022-08-19T13:44:07.713Z,9.00
2022-08-19T13:46:36.071Z,6.00
2022-08-19T13:49:05.250Z,7.00
2022-08-19T13:51:35.131Z,7.75
2022-08-19T13:54:03.302Z,7.75
2022-08-19T13:56:31.459Z,9.00
2022-08-19T13:58:59.682Z,5.25
2022-08-19T14:01:28.662Z,9.00
2022-08-19T14:03:57.039Z,6.00
2022-08-19T14:06:26.595Z,7.00
2022-08-19T14:08:56.359Z,9.00
2022-08-19T14:11:25.104Z,7.25
2022-08-19T14:13:53.307Z,7.00
2022-08-19T14:16:22.687Z,7.00
2022-08-19T14:18:51.140Z,8.75
2022-08-19T14:21:21.954Z,4.50
2022-08-19T14:23:50.564Z,8.00
2022-08-19T14:26:20.849Z,5.00
2022-08-19T14:28:49.083Z,7.00
2022-08-19T14:31:20.369Z,8.25
2022-08-19T14:33:49.329Z,5.00
2022-08-19T14:36:17.700Z,9.00
2022-08-19T14:38:45.887Z,8.75
2022-08-19T14:41:17.704Z,5.00
2022-08-19T14:43:47.996Z,7.00
2022-08-19T14:46:17.299Z,7.50
2022-08-19T14:48:45.949Z,7.75
2022-08-19T14:51:19.454Z,7.00
2022-08-19T14:53:49.792Z,8.00
2022-08-19T14:56:19.150Z,8.25
2022-08-19T14:58:48.997Z,7.00
2022-08-19T15:01:17.250Z,5.00
2022-08-19T15:03:45.666Z,7.00
2022-08-19T15:06:14.196Z,8.00
2022-08-19T15:08:44.116Z,6.00
2022-08-19T15:11:13.129Z,4.75
2022-08-19T15:13:41.843Z,9.00
2022-08-19T15:16:17.790Z,7.00
2022-08-19T15:18:47.677Z,8.25
2022-08-19T15:21:27.213Z,6.00
2022-08-19T15:23:56.426Z,6.25
2022-08-19T15:26:26.265Z,5.50
2022-08-19T15:28:54.438Z,6.75
2022-08-19T15:31:28.448Z,6.00
2022-08-19T15:33:58.688Z,7.25
2022-08-19T15:36:27.468Z,7.75
2022-08-19T15:38:55.735Z,8.00
2022-08-19T15:41:24.784Z,7.50
2022-08-19T15:43:54.686Z,5.50
2022-08-19T15:46:25.496Z,7.25
2022-08-19T15:48:56.191Z,7.00
2022-08-19T15:51:29.261Z,6.50
2022-08-19T15:53:57.428Z,7.75
2022-08-19T15:56:27.362Z,9.75
2022-08-19T15:59:13.093Z,7.75
2022-08-19T16:01:59.803Z,8.00
2022-08-19T16:04:45.442Z,8.00
2022-08-19T16:07:13.757Z,8.00
2022-08-19T16:09:41.851Z,4.20
2022-08-19T16:12:10.621Z,8.40
2022-08-19T16:14:39.834Z,6.00
2022-08-19T16:17:11.813Z,8.50
2022-08-19T16:19:40.674Z,7.00
2022-08-19T16:22:10.160Z,8.00
2022-08-19T16:24:38.375Z,4.50
2022-08-19T16:27:06.567Z,5.00
2022-08-19T16:29:39.340Z,7.25
2022-08-19T16:32:11.543Z,6.00
2022-08-19T16:34:40.237Z,6.25
2022-08-19T16:37:08.438Z,4.50
2022-08-19T16:39:36.776Z,7.25
2022-08-19T16:42:07.488Z,6.00
2022-08-19T16:44:36.015Z,6.50
2022-08-19T16:47:04.106Z,5.50
2022-08-19T16:49:53.051Z,6.00
2022-08-19T16:52:27.158Z,9.00
2022-08-19T16:54:55.358Z,5.00
2022-08-19T16:57:24.641Z,6.50
2022-08-19T16:59:53.003Z,8.00
2022-08-19T17:02:22.661Z,6.00
2022-08-19T17:04:57.653Z,7.75
2022-08-19T17:07:26.533Z,7.00
2022-08-19T17:09:55.173Z,9.50
2022-08-19T17:12:30.745Z,9.25
2022-08-19T17:15:00.767Z,6.00
2022-08-19T17:17:29.638Z,7.00
2022-08-19T17:20:00.545Z,8.75
2022-08-19T17:22:29.136Z,6.00
2022-08-19T17:24:57.909Z,6.00
2022-08-19T17:27:27.310Z,8.00
2022-08-19T17:30:01.071Z,7.00
2022-08-19T17:32:29.486Z,6.25
2022-08-19T17:34:57.810Z,6.50
2022-08-19T17:37:28.299Z,8.00
2022-08-19T17:39:56.706Z,7.50
2022-08-19T17:42:25.045Z,8.25
2022-08-19T17:44:53.511Z,6.00
2022-08-19T17:47:21.694Z,4.50
2022-08-19T17:49:52.192Z,7.75
2022-08-19T17:52:21.804Z,6.50
2022-08-19T17:54:51.431Z,7.00
2022-08-19T17:57:19.650Z,8.00
2022-08-19T17:59:48.686Z,6.25
2022-08-19T18:02:21.888Z,8.00
2022-08-19T18:04:50.596Z,7.00
2022-08-19T18:07:19.656Z,6.50
2022-08-19T18:09:51.673Z,7.50
2022-08-19T18:12:26.814Z,6.50
2022-08-19T18:14:55.299Z,7.50
2022-08-19T18:17:24.563Z,7.00
2022-08-19T18:19:53.039Z,9.25
2022-08-19T18:22:25.769Z,6.25
2022-08-19T18:24:54.761Z,8.25
2022-08-19T18:27:24.606Z,6.00
2022-08-19T18:29:54.703Z,8.00
2022-08-19T18:32:25.815Z,7.25
2022-08-19T18:34:54.804Z,5.50
2022-08-19T18:37:23.289Z,6.00
2022-08-19T18:40:08.903Z,9.75
2022-08-19T18:43:02.232Z,9.00
2022-08-19T18:45:47.785Z,10.00
2022-08-19T18:48:33.498Z,7.00
2022-08-19T18:51:02.388Z,9.50
2022-08-19T18:53:32.740Z,7.75
2022-08-19T18:56:01.004Z,4.00
2022-08-19T18:58:33.345Z,7.75
2022-08-19T19:01:03.014Z,7.50
2022-08-19T19:03:31.548Z,9.00
2022-08-19T19:05:59.825Z,8.00
2022-08-19T19:08:28.356Z,8.75
2022-08-19T19:10:58.983Z,5.00
2022-08-19T19:13:29.436Z,9.00
2022-08-19T19:16:01.260Z,6.00
2022-08-19T19:18:29.487Z,6.75
2022-08-19T19:20:57.941Z,6.25
2022-08-19T19:23:26.325Z,6.50
2022-08-19T19:25:54.714Z,5.75
2022-08-19T19:28:27.387Z,6.00
2022-08-19T19:30:57.721Z,6.50
2022-08-19T19:33:27.987Z,7.00
2022-08-19T19:35:56.510Z,5.00
2022-08-19T19:38:24.767Z,6.75
2022-08-19T19:40:52.938Z,7.00
2022-08-19T19:43:21.469Z,8.50
2022-08-19T19:45:49.961Z,7.75
2022-08-19T19:48:18.124Z,6.50
2022-08-19T19:50:53.965Z,5.75
2022-08-19T19:53:26.153Z,7.75
2022-08-19T19:55:55.182Z,7.00
2022-08-19T19:58:28.760Z,8.00
2022-08-19T20:00:57.988Z,5.50
2022-08-19T20:03:26.240Z,6.25
2022-08-19T20:05:58.237Z,6.75
2022-08-19T20:08:44.032Z,5.75
2022-08-19T20:11:12.180Z,6.00
2022-08-19T20:13:40.741Z,4.50
2022-08-19T20:16:09.449Z,6.50
2022-08-19T20:18:38.968Z,6.00
2022-08-19T20:21:08.646Z,6.00
2022-08-19T20:23:36.790Z,6.00
2022-08-19T20:26:06.590Z,6.25
2022-08-19T20:28:40.601Z,2.75
2022-08-19T20:31:15.959Z,7.50
2022-08-19T20:33:44.639Z,7.00
2022-08-19T20:36:15.039Z,8.00
2022-08-19T20:38:43.446Z,7.25
2022-08-19T20:41:11.884Z,8.25
2022-08-19T20:43:40.501Z,4.00
2022-08-19T20:46:09.066Z,5.50
2022-08-19T20:48:39.310Z,7.00
2022-08-19T20:51:07.741Z,1.00
2022-08-19T20:53:37.671Z,6.00
2022-08-19T20:56:06.810Z,6.00
2022-08-19T20:58:36.857Z,6.25
2022-08-19T21:01:05.927Z,8.00
2022-08-19T21:03:35.502Z,6.50
2022-08-19T21:06:12.711Z,8.00
2022-08-19T21:08:44.094Z,6.00
2022-08-19T21:11:14.044Z,7.50
2022-08-19T21:13:49.240Z,7.25
2022-08-19T21:16:17.536Z,7.25
2022-08-19T21:18:45.836Z,8.00
2022-08-19T21:21:14.037Z,8.00
2022-08-19T21:23:44.215Z,9.75
2022-08-19T21:26:12.707Z,8.50
2022-08-19T21:28:40.962Z,9.25
2022-08-19T21:31:10.637Z,7.00
2022-08-19T21:33:39.490Z,8.00
2022-08-19T21:36:08.247Z,7.00
2022-08-19T21:38:36.536Z,8.25
2022-08-19T21:41:06.966Z,7.75
2022-08-19T21:43:35.279Z,8.50
2022-08-19T21:46:03.552Z,8.00
2022-08-19T21:48:31.834Z,7.00
2022-08-19T21:51:00.023Z,5.00
2022-08-19T21:53:31.666Z,6.50
2022-08-19T21:56:03.102Z,8.50
2022-08-19T21:58:33.688Z,7.50
2022-08-19T22:01:06.090Z,7.00
2022-08-19T22:03:35.123Z,5.25
2022-08-19T22:06:03.382Z,7.00
2022-08-19T22:08:31.607Z,6.25
2022-08-19T22:11:00.391Z,6.50
2022-08-19T22:13:29.317Z,8.00
2022-08-19T22:15:58.827Z,8.00
2022-08-19T22:18:28.270Z,6.00
2022-08-19T22:20:56.817Z,5.00
2022-08-19T22:23:24.998Z,8.50
2022-08-19T22:25:53.136Z,3.75
2022-08-19T22:28:27.867Z,11.25
2022-08-19T22:30:57.106Z,11.00
2022-08-19T22:33:27.852Z,12.00
2022-08-19T22:35:55.986Z,9.75
2022-08-19T22:38:24.178Z,11.75
2022-08-19T22:40:53.298Z,8.00
2022-08-19T22:43:22.309Z,12.75
2022-08-19T22:45:51.339Z,10.00
2022-08-19T22:48:20.551Z,13.00
2022-08-19T22:51:04.247Z,10.00
2022-08-19T22:53:32.451Z,8.25
2022-08-19T22:56:00.562Z,13.00
2022-08-19T22:58:29.917Z,12.25
2022-08-19T23:00:58.182Z,15.00
2022-08-19T23:03:26.390Z,14.00
2022-08-19T23:05:56.679Z,15.00
2022-08-19T23:08:25.355Z,13.00
2022-08-19T23:10:53.509Z,14.50
2022-08-19T23:13:21.640Z,10.75
2022-08-19T23:15:49.720Z,16.00
2022-08-19T23:18:17.910Z,14.00
2022-08-19T23:20:46.034Z,8.25
2022-08-19T23:23:19.130Z,15.50
2022-08-19T23:25:48.255Z,1.00
2022-08-19T23:28:33.424Z,9.75
2022-08-19T23:31:03.053Z,18.75
2022-08-19T23:33:44.344Z,17.75
2022-08-19T23:36:20.605Z,19.75
2022-08-19T23:38:52.078Z,21.00
2022-08-19T23:41:20.767Z,23.00
2022-08-19T23:43:50.864Z,19.75
2022-08-19T23:46:28.353Z,21.50
2022-08-19T23:48:56.911Z,19.25
2022-08-19T23:51:26.795Z,17.00
2022-08-19T23:53:56.326Z,22.50
2022-08-19T23:56:24.596Z,22.00
2022-08-19T23:58:52.779Z,22.25
